sensor_id;sensor_type;location;lat;lon;timestamp;P1;durP1;ratioP1;P2;durP2;ratioP2
8058;SDS011;4072;42.668;23.396;2023-02-11T00:01:24;29.13;;;16.70;;
8058;SDS011;4072;42.668;23.396;2023-02-11T00:03:52;32.83;;;17.80;;
8058;SDS011;4072;42.668;23.396;2023-02-11T00:06:21;29.37;;;16.87;;
8058;SDS011;4072;42.668;23.396;2023-02-11T00:08:49;34.63;;;18.57;;
8058;SDS011;4072;42.668;23.396;2023-02-11T00:11:18;38.00;;;20.60;;
8058;SDS011;4072;42.668;23.396;2023-02-11T00:13:46;33.90;;;20.50;;
8058;SDS011;4072;42.668;23.396;2023-02-11T00:16:14;31.57;;;19.13;;
8058;SDS011;4072;42.668;23.396;2023-02-11T00:18:42;31.03;;;18.33;;
8058;SDS011;4072;42.668;23.396;2023-02-11T00:21:11;30.93;;;19.30;;
8058;SDS011;4072;42.668;23.396;2023-02-11T00:23:41;32.13;;;18.33;;
8058;SDS011;4072;42.668;23.396;2023-02-11T00:26:12;28.33;;;17.37;;
8058;SDS011;4072;42.668;23.396;2023-02-11T00:28:40;32.37;;;19.20;;
8058;SDS011;4072;42.668;23.396;2023-02-11T00:31:08;27.47;;;15.97;;
8058;SDS011;4072;42.668;23.396;2023-02-11T00:33:36;33.40;;;17.27;;
8058;SDS011;4072;42.668;23.396;2023-02-11T00:36:03;30.80;;;17.80;;
8058;SDS011;4072;42.668;23.396;2023-02-11T00:38:31;25.63;;;15.53;;
8058;SDS011;4072;42.668;23.396;2023-02-11T00:41:00;29.47;;;15.17;;
8058;SDS011;4072;42.668;23.396;2023-02-11T00:43:28;26.63;;;16.60;;
8058;SDS011;4072;42.668;23.396;2023-02-11T00:45:56;22.53;;;15.47;;
8058;SDS011;4072;42.668;23.396;2023-02-11T00:48:24;30.47;;;18.07;;
8058;SDS011;4072;42.668;23.396;2023-02-11T00:50:51;30.63;;;17.27;;
8058;SDS011;4072;42.668;23.396;2023-02-11T00:53:19;27.40;;;17.10;;
8058;SDS011;4072;42.668;23.396;2023-02-11T00:55:47;26.27;;;15.50;;
8058;SDS011;4072;42.668;23.396;2023-02-11T00:58:16;23.83;;;16.30;;
8058;SDS011;4072;42.668;23.396;2023-02-11T01:00:44;29.03;;;18.43;;
8058;SDS011;4072;42.668;23.396;2023-02-11T01:03:12;25.00;;;16.60;;
8058;SDS011;4072;42.668;23.396;2023-02-11T01:05:40;34.37;;;18.60;;
8058;SDS011;4072;42.668;23.396;2023-02-11T01:08:07;35.50;;;17.80;;
8058;SDS011;4072;42.668;23.396;2023-02-11T01:10:35;35.57;;;18.07;;
8058;SDS011;4072;42.668;23.396;2023-02-11T01:13:03;26.10;;;15.40;;
8058;SDS011;4072;42.668;23.396;2023-02-11T01:15:33;24.67;;;14.43;;
8058;SDS011;4072;42.668;23.396;2023-02-11T01:18:01;24.43;;;14.53;;
8058;SDS011;4072;42.668;23.396;2023-02-11T01:20:28;27.10;;;15.37;;
8058;SDS011;4072;42.668;23.396;2023-02-11T01:22:56;29.00;;;15.77;;
8058;SDS011;4072;42.668;23.396;2023-02-11T01:25:24;26.60;;;15.60;;
8058;SDS011;4072;42.668;23.396;2023-02-11T01:27:51;25.10;;;15.23;;
8058;SDS011;4072;42.668;23.396;2023-02-11T01:30:19;24.60;;;16.87;;
8058;SDS011;4072;42.668;23.396;2023-02-11T01:32:48;31.43;;;17.83;;
8058;SDS011;4072;42.668;23.396;2023-02-11T01:35:16;26.13;;;17.23;;
8058;SDS011;4072;42.668;23.396;2023-02-11T01:37:44;29.30;;;17.50;;
8058;SDS011;4072;42.668;23.396;2023-02-11T01:40:13;29.57;;;18.57;;
8058;SDS011;4072;42.668;23.396;2023-02-11T01:42:41;26.33;;;16.87;;
8058;SDS011;4072;42.668;23.396;2023-02-11T01:47:56;28.87;;;17.17;;
8058;SDS011;4072;42.668;23.396;2023-02-11T01:50:24;26.93;;;16.43;;
8058;SDS011;4072;42.668;23.396;2023-02-11T01:52:52;28.43;;;17.80;;
8058;SDS011;4072;42.668;23.396;2023-02-11T01:55:40;30.57;;;16.50;;
8058;SDS011;4072;42.668;23.396;2023-02-11T01:58:26;30.07;;;18.07;;
8058;SDS011;4072;42.668;23.396;2023-02-11T02:00:54;28.90;;;18.13;;
8058;SDS011;4072;42.668;23.396;2023-02-11T02:03:23;25.87;;;15.43;;
8058;SDS011;4072;42.668;23.396;2023-02-11T02:05:52;29.60;;;16.93;;
8058;SDS011;4072;42.668;23.396;2023-02-11T02:08:21;29.03;;;16.40;;
8058;SDS011;4072;42.668;23.396;2023-02-11T02:10:51;28.13;;;16.47;;
8058;SDS011;4072;42.668;23.396;2023-02-11T02:13:22;22.10;;;14.97;;
8058;SDS011;4072;42.668;23.396;2023-02-11T02:15:50;29.93;;;16.37;;
8058;SDS011;4072;42.668;23.396;2023-02-11T02:18:21;24.13;;;15.07;;
8058;SDS011;4072;42.668;23.396;2023-02-11T02:23:49;23.47;;;15.07;;
8058;SDS011;4072;42.668;23.396;2023-02-11T02:26:22;27.70;;;15.43;;
8058;SDS011;4072;42.668;23.396;2023-02-11T02:29:03;24.20;;;15.53;;
8058;SDS011;4072;42.668;23.396;2023-02-11T02:31:38;28.87;;;15.23;;
8058;SDS011;4072;42.668;23.396;2023-02-11T02:34:11;27.67;;;15.73;;
8058;SDS011;4072;42.668;23.396;2023-02-11T02:36:40;25.90;;;15.80;;
8058;SDS011;4072;42.668;23.396;2023-02-11T02:39:10;25.43;;;16.27;;
8058;SDS011;4072;42.668;23.396;2023-02-11T02:41:39;29.17;;;17.27;;
8058;SDS011;4072;42.668;23.396;2023-02-11T02:44:08;24.60;;;16.20;;
8058;SDS011;4072;42.668;23.396;2023-02-11T02:46:35;32.00;;;16.87;;
8058;SDS011;4072;42.668;23.396;2023-02-11T02:49:05;27.27;;;15.33;;
8058;SDS011;4072;42.668;23.396;2023-02-11T02:54:32;24.53;;;14.70;;
8058;SDS011;4072;42.668;23.396;2023-02-11T02:57:03;23.83;;;14.73;;
8058;SDS011;4072;42.668;23.396;2023-02-11T02:59:36;24.47;;;13.87;;
8058;SDS011;4072;42.668;23.396;2023-02-11T03:02:09;23.00;;;15.00;;
8058;SDS011;4072;42.668;23.396;2023-02-11T03:04:41;25.90;;;14.63;;
8058;SDS011;4072;42.668;23.396;2023-02-11T03:07:14;21.43;;;12.77;;
8058;SDS011;4072;42.668;23.396;2023-02-11T03:09:49;24.03;;;13.90;;
8058;SDS011;4072;42.668;23.396;2023-02-11T03:12:17;25.90;;;13.93;;
8058;SDS011;4072;42.668;23.396;2023-02-11T03:14:46;20.83;;;13.00;;
8058;SDS011;4072;42.668;23.396;2023-02-11T03:17:15;23.87;;;13.50;;
8058;SDS011;4072;42.668;23.396;2023-02-11T03:19:43;23.07;;;13.83;;
8058;SDS011;4072;42.668;23.396;2023-02-11T03:22:15;21.50;;;14.13;;
8058;SDS011;4072;42.668;23.396;2023-02-11T03:24:43;25.53;;;14.20;;
8058;SDS011;4072;42.668;23.396;2023-02-11T03:27:14;21.57;;;14.13;;
8058;SDS011;4072;42.668;23.396;2023-02-11T03:29:46;25.50;;;15.57;;
8058;SDS011;4072;42.668;23.396;2023-02-11T03:32:18;20.57;;;12.17;;
8058;SDS011;4072;42.668;23.396;2023-02-11T03:34:48;21.73;;;12.77;;
8058;SDS011;4072;42.668;23.396;2023-02-11T03:37:17;25.23;;;14.07;;
8058;SDS011;4072;42.668;23.396;2023-02-11T03:39:47;23.10;;;14.20;;
8058;SDS011;4072;42.668;23.396;2023-02-11T03:42:19;21.43;;;14.50;;
8058;SDS011;4072;42.668;23.396;2023-02-11T03:44:49;21.20;;;13.27;;
8058;SDS011;4072;42.668;23.396;2023-02-11T03:47:18;22.93;;;14.87;;
8058;SDS011;4072;42.668;23.396;2023-02-11T03:49:48;25.43;;;14.63;;
8058;SDS011;4072;42.668;23.396;2023-02-11T03:52:17;20.23;;;11.83;;
8058;SDS011;4072;42.668;23.396;2023-02-11T03:54:46;22.13;;;11.47;;
8058;SDS011;4072;42.668;23.396;2023-02-11T03:57:15;17.53;;;10.70;;
8058;SDS011;4072;42.668;23.396;2023-02-11T03:59:54;15.77;;;9.83;;
8058;SDS011;4072;42.668;23.396;2023-02-11T04:02:22;16.10;;;9.63;;
8058;SDS011;4072;42.668;23.396;2023-02-11T04:04:51;19.47;;;11.60;;
8058;SDS011;4072;42.668;23.396;2023-02-11T04:07:19;21.23;;;12.23;;
8058;SDS011;4072;42.668;23.396;2023-02-11T04:09:47;17.90;;;11.70;;
8058;SDS011;4072;42.668;23.396;2023-02-11T04:12:15;23.63;;;12.13;;
8058;SDS011;4072;42.668;23.396;2023-02-11T04:14:42;20.07;;;11.07;;
8058;SDS011;4072;42.668;23.396;2023-02-11T04:17:12;18.63;;;11.00;;
8058;SDS011;4072;42.668;23.396;2023-02-11T04:19:39;18.93;;;12.07;;
8058;SDS011;4072;42.668;23.396;2023-02-11T04:22:07;24.27;;;13.13;;
8058;SDS011;4072;42.668;23.396;2023-02-11T04:24:35;20.17;;;11.37;;
8058;SDS011;4072;42.668;23.396;2023-02-11T04:27:02;22.10;;;11.07;;
8058;SDS011;4072;42.668;23.396;2023-02-11T04:29:30;20.23;;;12.33;;
8058;SDS011;4072;42.668;23.396;2023-02-11T04:31:58;22.97;;;13.73;;
8058;SDS011;4072;42.668;23.396;2023-02-11T04:34:27;22.27;;;13.13;;
8058;SDS011;4072;42.668;23.396;2023-02-11T04:36:55;22.13;;;13.70;;
8058;SDS011;4072;42.668;23.396;2023-02-11T04:39:23;19.57;;;13.40;;
8058;SDS011;4072;42.668;23.396;2023-02-11T04:41:50;21.30;;;13.20;;
8058;SDS011;4072;42.668;23.396;2023-02-11T04:44:18;21.17;;;13.13;;
8058;SDS011;4072;42.668;23.396;2023-02-11T04:46:46;20.17;;;12.40;;
8058;SDS011;4072;42.668;23.396;2023-02-11T04:49:14;20.53;;;13.20;;
8058;SDS011;4072;42.668;23.396;2023-02-11T04:51:43;21.50;;;12.03;;
8058;SDS011;4072;42.668;23.396;2023-02-11T04:54:14;22.70;;;11.50;;
8058;SDS011;4072;42.668;23.396;2023-02-11T04:56:42;16.80;;;9.47;;
8058;SDS011;4072;42.668;23.396;2023-02-11T04:59:10;23.03;;;12.97;;
8058;SDS011;4072;42.668;23.396;2023-02-11T05:01:38;20.53;;;12.40;;
8058;SDS011;4072;42.668;23.396;2023-02-11T05:04:06;21.43;;;12.43;;
8058;SDS011;4072;42.668;23.396;2023-02-11T05:06:34;21.40;;;11.33;;
8058;SDS011;4072;42.668;23.396;2023-02-11T05:09:03;17.93;;;10.60;;
8058;SDS011;4072;42.668;23.396;2023-02-11T05:11:31;15.17;;;9.27;;
8058;SDS011;4072;42.668;23.396;2023-02-11T05:14:05;18.10;;;10.70;;
8058;SDS011;4072;42.668;23.396;2023-02-11T05:16:33;14.83;;;9.57;;
8058;SDS011;4072;42.668;23.396;2023-02-11T05:19:01;18.57;;;10.50;;
8058;SDS011;4072;42.668;23.396;2023-02-11T05:21:28;18.43;;;10.77;;
8058;SDS011;4072;42.668;23.396;2023-02-11T05:23:56;19.57;;;10.80;;
8058;SDS011;4072;42.668;23.396;2023-02-11T05:26:25;18.37;;;11.30;;
8058;SDS011;4072;42.668;23.396;2023-02-11T05:28:53;16.50;;;10.53;;
8058;SDS011;4072;42.668;23.396;2023-02-11T05:31:21;22.87;;;12.07;;
8058;SDS011;4072;42.668;23.396;2023-02-11T05:33:48;21.27;;;12.43;;
8058;SDS011;4072;42.668;23.396;2023-02-11T05:36:16;18.23;;;11.97;;
8058;SDS011;4072;42.668;23.396;2023-02-11T05:38:44;19.60;;;11.37;;
8058;SDS011;4072;42.668;23.396;2023-02-11T05:41:11;20.67;;;13.00;;
8058;SDS011;4072;42.668;23.396;2023-02-11T05:43:40;19.97;;;12.43;;
8058;SDS011;4072;42.668;23.396;2023-02-11T05:46:08;18.20;;;12.60;;
8058;SDS011;4072;42.668;23.396;2023-02-11T05:48:36;22.30;;;13.03;;
8058;SDS011;4072;42.668;23.396;2023-02-11T05:51:04;22.93;;;12.60;;
8058;SDS011;4072;42.668;23.396;2023-02-11T05:53:32;20.77;;;13.17;;
8058;SDS011;4072;42.668;23.396;2023-02-11T05:55:59;26.20;;;14.13;;
8058;SDS011;4072;42.668;23.396;2023-02-11T05:58:27;26.37;;;14.13;;
8058;SDS011;4072;42.668;23.396;2023-02-11T06:00:56;23.23;;;13.33;;
8058;SDS011;4072;42.668;23.396;2023-02-11T06:03:24;18.80;;;12.50;;
8058;SDS011;4072;42.668;23.396;2023-02-11T06:05:52;22.67;;;12.53;;
8058;SDS011;4072;42.668;23.396;2023-02-11T06:08:19;24.20;;;13.23;;
8058;SDS011;4072;42.668;23.396;2023-02-11T06:10:47;24.30;;;13.60;;
8058;SDS011;4072;42.668;23.396;2023-02-11T06:13:15;21.67;;;13.40;;
8058;SDS011;4072;42.668;23.396;2023-02-11T06:15:44;22.17;;;13.40;;
8058;SDS011;4072;42.668;23.396;2023-02-11T06:18:13;26.73;;;15.27;;
8058;SDS011;4072;42.668;23.396;2023-02-11T06:20:40;24.77;;;15.33;;
8058;SDS011;4072;42.668;23.396;2023-02-11T06:23:08;23.30;;;14.23;;
8058;SDS011;4072;42.668;23.396;2023-02-11T06:25:36;28.77;;;14.70;;
8058;SDS011;4072;42.668;23.396;2023-02-11T06:28:03;23.53;;;13.53;;
8058;SDS011;4072;42.668;23.396;2023-02-11T06:30:31;21.90;;;13.87;;
8058;SDS011;4072;42.668;23.396;2023-02-11T06:32:59;22.80;;;14.47;;
8058;SDS011;4072;42.668;23.396;2023-02-11T06:35:28;22.53;;;13.20;;
8058;SDS011;4072;42.668;23.396;2023-02-11T06:37:56;22.37;;;15.33;;
8058;SDS011;4072;42.668;23.396;2023-02-11T06:40:24;25.43;;;15.63;;
8058;SDS011;4072;42.668;23.396;2023-02-11T06:42:51;19.47;;;14.13;;
8058;SDS011;4072;42.668;23.396;2023-02-11T06:45:19;27.67;;;14.60;;
8058;SDS011;4072;42.668;23.396;2023-02-11T06:47:47;23.90;;;15.60;;
8058;SDS011;4072;42.668;23.396;2023-02-11T06:50:17;24.67;;;14.70;;
8058;SDS011;4072;42.668;23.396;2023-02-11T06:52:47;22.60;;;14.23;;
8058;SDS011;4072;42.668;23.396;2023-02-11T06:55:14;29.23;;;15.67;;
8058;SDS011;4072;42.668;23.396;2023-02-11T06:57:42;24.93;;;13.90;;
8058;SDS011;4072;42.668;23.396;2023-02-11T07:00:10;29.77;;;17.10;;
8058;SDS011;4072;42.668;23.396;2023-02-11T07:02:38;26.43;;;16.60;;
8058;SDS011;4072;42.668;23.396;2023-02-11T07:05:06;29.60;;;16.17;;
8058;SDS011;4072;42.668;23.396;2023-02-11T07:07:34;23.67;;;15.93;;
8058;SDS011;4072;42.668;23.396;2023-02-11T07:10:04;26.77;;;15.77;;
8058;SDS011;4072;42.668;23.396;2023-02-11T07:12:31;29.47;;;18.00;;
8058;SDS011;4072;42.668;23.396;2023-02-11T07:14:59;25.53;;;16.83;;
8058;SDS011;4072;42.668;23.396;2023-02-11T07:17:27;29.57;;;18.73;;
8058;SDS011;4072;42.668;23.396;2023-02-11T07:19:55;28.03;;;19.13;;
8058;SDS011;4072;42.668;23.396;2023-02-11T07:22:22;32.50;;;19.40;;
8058;SDS011;4072;42.668;23.396;2023-02-11T07:24:50;31.13;;;18.13;;
8058;SDS011;4072;42.668;23.396;2023-02-11T07:27:19;31.00;;;20.43;;
8058;SDS011;4072;42.668;23.396;2023-02-11T07:29:47;32.47;;;19.70;;
8058;SDS011;4072;42.668;23.396;2023-02-11T07:32:14;35.93;;;20.77;;
8058;SDS011;4072;42.668;23.396;2023-02-11T07:34:42;34.23;;;21.10;;
8058;SDS011;4072;42.668;23.396;2023-02-11T07:37:10;39.47;;;22.30;;
8058;SDS011;4072;42.668;23.396;2023-02-11T07:39:38;32.10;;;20.60;;
8058;SDS011;4072;42.668;23.396;2023-02-11T07:42:06;32.90;;;21.43;;
8058;SDS011;4072;42.668;23.396;2023-02-11T07:44:35;37.27;;;22.47;;
8058;SDS011;4072;42.668;23.396;2023-02-11T07:47:03;38.07;;;22.17;;
8058;SDS011;4072;42.668;23.396;2023-02-11T07:49:31;31.90;;;18.17;;
8058;SDS011;4072;42.668;23.396;2023-02-11T07:51:59;37.43;;;20.40;;
8058;SDS011;4072;42.668;23.396;2023-02-11T07:54:27;28.63;;;18.27;;
8058;SDS011;4072;42.668;23.396;2023-02-11T07:56:54;29.80;;;18.73;;
8058;SDS011;4072;42.668;23.396;2023-02-11T07:59:22;25.30;;;14.97;;
8058;SDS011;4072;42.668;23.396;2023-02-11T08:01:52;26.40;;;15.50;;
8058;SDS011;4072;42.668;23.396;2023-02-11T08:04:20;22.90;;;14.60;;
8058;SDS011;4072;42.668;23.396;2023-02-11T08:06:47;22.87;;;14.70;;
8058;SDS011;4072;42.668;23.396;2023-02-11T08:09:18;23.47;;;15.10;;
8058;SDS011;4072;42.668;23.396;2023-02-11T08:11:45;27.47;;;16.20;;
8058;SDS011;4072;42.668;23.396;2023-02-11T08:14:13;21.87;;;13.53;;
8058;SDS011;4072;42.668;23.396;2023-02-11T08:16:41;30.53;;;17.67;;
8058;SDS011;4072;42.668;23.396;2023-02-11T08:19:11;26.27;;;15.83;;
8058;SDS011;4072;42.668;23.396;2023-02-11T08:21:39;26.23;;;15.70;;
8058;SDS011;4072;42.668;23.396;2023-02-11T08:24:06;26.93;;;14.50;;
8058;SDS011;4072;42.668;23.396;2023-02-11T08:26:34;25.53;;;16.47;;
8058;SDS011;4072;42.668;23.396;2023-02-11T08:29:05;25.17;;;15.20;;
8058;SDS011;4072;42.668;23.396;2023-02-11T08:31:34;26.23;;;15.90;;
8058;SDS011;4072;42.668;23.396;2023-02-11T08:34:03;33.87;;;20.60;;
8058;SDS011;4072;42.668;23.396;2023-02-11T08:36:32;26.00;;;16.87;;
8058;SDS011;4072;42.668;23.396;2023-02-11T08:39:01;26.33;;;15.23;;
8058;SDS011;4072;42.668;23.396;2023-02-11T08:41:44;27.27;;;15.97;;
8058;SDS011;4072;42.668;23.396;2023-02-11T08:44:12;26.13;;;17.17;;
8058;SDS011;4072;42.668;23.396;2023-02-11T08:46:39;28.27;;;18.70;;
8058;SDS011;4072;42.668;23.396;2023-02-11T08:49:07;31.00;;;19.17;;
8058;SDS011;4072;42.668;23.396;2023-02-11T08:51:36;27.10;;;17.20;;
8058;SDS011;4072;42.668;23.396;2023-02-11T08:54:04;30.07;;;18.13;;
8058;SDS011;4072;42.668;23.396;2023-02-11T08:56:34;22.00;;;14.77;;
8058;SDS011;4072;42.668;23.396;2023-02-11T08:59:02;22.00;;;14.57;;
8058;SDS011;4072;42.668;23.396;2023-02-11T09:01:30;29.43;;;16.80;;
8058;SDS011;4072;42.668;23.396;2023-02-11T09:03:58;27.53;;;17.93;;
8058;SDS011;4072;42.668;23.396;2023-02-11T09:06:27;25.13;;;15.90;;
8058;SDS011;4072;42.668;23.396;2023-02-11T09:08:56;27.97;;;17.27;;
8058;SDS011;4072;42.668;23.396;2023-02-11T09:11:25;28.07;;;17.40;;
8058;SDS011;4072;42.668;23.396;2023-02-11T09:13:53;22.80;;;13.37;;
8058;SDS011;4072;42.668;23.396;2023-02-11T09:16:21;28.63;;;15.80;;
8058;SDS011;4072;42.668;23.396;2023-02-11T09:18:49;26.13;;;16.67;;
8058;SDS011;4072;42.668;23.396;2023-02-11T09:21:17;31.17;;;17.13;;
8058;SDS011;4072;42.668;23.396;2023-02-11T09:23:46;27.17;;;16.03;;
8058;SDS011;4072;42.668;23.396;2023-02-11T09:26:16;28.43;;;16.70;;
8058;SDS011;4072;42.668;23.396;2023-02-11T09:28:44;23.60;;;15.57;;
8058;SDS011;4072;42.668;23.396;2023-02-11T09:31:13;22.20;;;15.63;;
8058;SDS011;4072;42.668;23.396;2023-02-11T09:33:41;23.80;;;15.23;;
8058;SDS011;4072;42.668;23.396;2023-02-11T09:36:14;23.57;;;15.70;;
8058;SDS011;4072;42.668;23.396;2023-02-11T09:38:41;26.87;;;15.33;;
8058;SDS011;4072;42.668;23.396;2023-02-11T09:41:22;23.80;;;14.77;;
8058;SDS011;4072;42.668;23.396;2023-02-11T09:43:52;21.27;;;15.93;;
8058;SDS011;4072;42.668;23.396;2023-02-11T09:46:21;21.13;;;14.77;;
8058;SDS011;4072;42.668;23.396;2023-02-11T09:48:50;25.00;;;15.83;;
8058;SDS011;4072;42.668;23.396;2023-02-11T09:51:18;25.37;;;15.87;;
8058;SDS011;4072;42.668;23.396;2023-02-11T09:53:47;21.63;;;13.87;;
8058;SDS011;4072;42.668;23.396;2023-02-11T09:56:16;23.63;;;13.53;;
8058;SDS011;4072;42.668;23.396;2023-02-11T09:58:45;24.30;;;14.20;;
8058;SDS011;4072;42.668;23.396;2023-02-11T10:01:14;19.77;;;12.70;;
8058;SDS011;4072;42.668;23.396;2023-02-11T10:03:50;27.27;;;15.03;;
8058;SDS011;4072;42.668;23.396;2023-02-11T10:06:31;19.83;;;12.37;;
8058;SDS011;4072;42.668;23.396;2023-02-11T10:09:03;20.50;;;13.80;;
8058;SDS011;4072;42.668;23.396;2023-02-11T10:11:34;16.90;;;12.23;;
8058;SDS011;4072;42.668;23.396;2023-02-11T10:14:07;18.33;;;12.53;;
8058;SDS011;4072;42.668;23.396;2023-02-11T10:16:41;19.73;;;11.93;;
8058;SDS011;4072;42.668;23.396;2023-02-11T10:19:18;15.03;;;10.43;;
8058;SDS011;4072;42.668;23.396;2023-02-11T10:21:52;19.03;;;12.17;;
8058;SDS011;4072;42.668;23.396;2023-02-11T10:24:22;21.23;;;12.83;;
8058;SDS011;4072;42.668;23.396;2023-02-11T10:26:50;23.43;;;13.53;;
8058;SDS011;4072;42.668;23.396;2023-02-11T10:29:24;20.17;;;12.33;;
8058;SDS011;4072;42.668;23.396;2023-02-11T10:31:52;20.87;;;12.20;;
8058;SDS011;4072;42.668;23.396;2023-02-11T10:34:23;19.33;;;11.13;;
8058;SDS011;4072;42.668;23.396;2023-02-11T10:36:51;18.00;;;10.83;;
8058;SDS011;4072;42.668;23.396;2023-02-11T10:39:19;17.23;;;10.90;;
8058;SDS011;4072;42.668;23.396;2023-02-11T10:41:49;18.53;;;10.77;;
8058;SDS011;4072;42.668;23.396;2023-02-11T10:44:23;15.50;;;10.10;;
8058;SDS011;4072;42.668;23.396;2023-02-11T10:46:52;19.13;;;12.20;;
8058;SDS011;4072;42.668;23.396;2023-02-11T10:49:32;17.80;;;10.87;;
8058;SDS011;4072;42.668;23.396;2023-02-11T10:52:20;19.27;;;13.40;;
8058;SDS011;4072;42.668;23.396;2023-02-11T10:54:56;22.00;;;12.83;;
8058;SDS011;4072;42.668;23.396;2023-02-11T10:57:25;17.73;;;9.50;;
8058;SDS011;4072;42.668;23.396;2023-02-11T10:59:57;17.43;;;11.63;;
8058;SDS011;4072;42.668;23.396;2023-02-11T11:02:27;14.13;;;10.80;;
8058;SDS011;4072;42.668;23.396;2023-02-11T11:04:58;17.30;;;10.33;;
8058;SDS011;4072;42.668;23.396;2023-02-11T11:07:27;16.97;;;10.47;;
8058;SDS011;4072;42.668;23.396;2023-02-11T11:09:57;17.50;;;10.93;;
8058;SDS011;4072;42.668;23.396;2023-02-11T11:12:30;16.60;;;10.20;;
8058;SDS011;4072;42.668;23.396;2023-02-11T11:15:00;14.17;;;9.53;;
8058;SDS011;4072;42.668;23.396;2023-02-11T11:17:28;14.70;;;9.33;;
8058;SDS011;4072;42.668;23.396;2023-02-11T11:20:17;15.83;;;10.50;;
8058;SDS011;4072;42.668;23.396;2023-02-11T11:22:45;16.20;;;10.47;;
8058;SDS011;4072;42.668;23.396;2023-02-11T11:25:24;14.23;;;8.93;;
8058;SDS011;4072;42.668;23.396;2023-02-11T11:27:53;15.53;;;10.03;;
8058;SDS011;4072;42.668;23.396;2023-02-11T11:30:24;20.00;;;9.97;;
8058;SDS011;4072;42.668;23.396;2023-02-11T11:32:53;14.50;;;10.10;;
8058;SDS011;4072;42.668;23.396;2023-02-11T11:35:26;17.00;;;9.97;;
8058;SDS011;4072;42.668;23.396;2023-02-11T11:37:54;17.00;;;10.40;;
8058;SDS011;4072;42.668;23.396;2023-02-11T11:40:27;14.33;;;9.00;;
8058;SDS011;4072;42.668;23.396;2023-02-11T11:43:02;13.90;;;9.13;;
8058;SDS011;4072;42.668;23.396;2023-02-11T11:45:32;14.03;;;9.33;;
8058;SDS011;4072;42.668;23.396;2023-02-11T11:48:00;15.23;;;9.10;;
8058;SDS011;4072;42.668;23.396;2023-02-11T11:50:31;14.33;;;7.83;;
8058;SDS011;4072;42.668;23.396;2023-02-11T11:53:03;11.90;;;8.47;;
8058;SDS011;4072;42.668;23.396;2023-02-11T11:55:33;16.30;;;8.97;;
8058;SDS011;4072;42.668;23.396;2023-02-11T11:58:01;13.70;;;9.00;;
8058;SDS011;4072;42.668;23.396;2023-02-11T12:00:34;12.77;;;9.57;;
8058;SDS011;4072;42.668;23.396;2023-02-11T12:05:55;10.67;;;8.30;;
8058;SDS011;4072;42.668;23.396;2023-02-11T12:08:29;12.43;;;8.17;;
8058;SDS011;4072;42.668;23.396;2023-02-11T12:11:04;15.13;;;10.10;;
8058;SDS011;4072;42.668;23.396;2023-02-11T12:13:39;15.07;;;9.43;;
8058;SDS011;4072;42.668;23.396;2023-02-11T12:16:12;18.57;;;8.90;;
8058;SDS011;4072;42.668;23.396;2023-02-11T12:21:28;12.73;;;8.53;;
8058;SDS011;4072;42.668;23.396;2023-02-11T12:24:05;14.00;;;9.77;;
8058;SDS011;4072;42.668;23.396;2023-02-11T12:26:35;12.80;;;8.17;;
8058;SDS011;4072;42.668;23.396;2023-02-11T12:29:08;12.60;;;7.97;;
8058;SDS011;4072;42.668;23.396;2023-02-11T12:31:45;13.53;;;8.70;;
8058;SDS011;4072;42.668;23.396;2023-02-11T12:34:22;12.63;;;8.50;;
8058;SDS011;4072;42.668;23.396;2023-02-11T12:37:00;11.47;;;6.93;;
8058;SDS011;4072;42.668;23.396;2023-02-11T12:39:36;11.23;;;6.87;;
8058;SDS011;4072;42.668;23.396;2023-02-11T12:42:12;9.63;;;7.00;;
8058;SDS011;4072;42.668;23.396;2023-02-11T12:45:07;6.90;;;5.70;;
8058;SDS011;4072;42.668;23.396;2023-02-11T12:47:39;10.40;;;6.97;;
8058;SDS011;4072;42.668;23.396;2023-02-11T12:50:13;9.97;;;7.30;;
8058;SDS011;4072;42.668;23.396;2023-02-11T12:52:50;13.43;;;8.40;;
8058;SDS011;4072;42.668;23.396;2023-02-11T12:55:22;10.47;;;7.93;;
8058;SDS011;4072;42.668;23.396;2023-02-11T12:57:52;14.37;;;8.80;;
8058;SDS011;4072;42.668;23.396;2023-02-11T13:00:22;12.23;;;7.77;;
8058;SDS011;4072;42.668;23.396;2023-02-11T13:02:54;9.47;;;6.47;;
8058;SDS011;4072;42.668;23.396;2023-02-11T13:05:24;13.37;;;7.07;;
8058;SDS011;4072;42.668;23.396;2023-02-11T13:07:53;9.83;;;6.63;;
8058;SDS011;4072;42.668;23.396;2023-02-11T13:10:24;10.03;;;6.17;;
8058;SDS011;4072;42.668;23.396;2023-02-11T13:12:55;8.43;;;5.90;;
8058;SDS011;4072;42.668;23.396;2023-02-11T13:15:41;10.93;;;7.07;;
8058;SDS011;4072;42.668;23.396;2023-02-11T13:18:14;14.07;;;8.03;;
8058;SDS011;4072;42.668;23.396;2023-02-11T13:20:44;11.67;;;6.90;;
8058;SDS011;4072;42.668;23.396;2023-02-11T13:23:18;10.30;;;7.67;;
8058;SDS011;4072;42.668;23.396;2023-02-11T13:25:49;12.47;;;9.20;;
8058;SDS011;4072;42.668;23.396;2023-02-11T13:28:24;15.70;;;9.67;;
8058;SDS011;4072;42.668;23.396;2023-02-11T13:30:52;10.47;;;6.97;;
8058;SDS011;4072;42.668;23.396;2023-02-11T13:33:33;9.57;;;7.70;;
8058;SDS011;4072;42.668;23.396;2023-02-11T13:36:11;10.57;;;6.80;;
8058;SDS011;4072;42.668;23.396;2023-02-11T13:38:39;10.67;;;7.27;;
8058;SDS011;4072;42.668;23.396;2023-02-11T13:41:14;11.43;;;7.00;;
8058;SDS011;4072;42.668;23.396;2023-02-11T13:43:43;8.43;;;6.37;;
8058;SDS011;4072;42.668;23.396;2023-02-11T13:46:11;9.73;;;6.47;;
8058;SDS011;4072;42.668;23.396;2023-02-11T13:48:45;8.27;;;6.00;;
8058;SDS011;4072;42.668;23.396;2023-02-11T13:51:14;12.70;;;7.63;;
8058;SDS011;4072;42.668;23.396;2023-02-11T13:53:43;10.43;;;7.70;;
8058;SDS011;4072;42.668;23.396;2023-02-11T13:56:22;10.13;;;7.10;;
8058;SDS011;4072;42.668;23.396;2023-02-11T13:58:50;11.37;;;7.70;;
8058;SDS011;4072;42.668;23.396;2023-02-11T14:04:18;13.30;;;6.27;;
8058;SDS011;4072;42.668;23.396;2023-02-11T14:13:04;9.23;;;5.87;;
8058;SDS011;4072;42.668;23.396;2023-02-11T14:15:40;10.87;;;7.23;;
8058;SDS011;4072;42.668;23.396;2023-02-11T14:20:59;8.53;;;6.67;;
8058;SDS011;4072;42.668;23.396;2023-02-11T14:23:29;10.70;;;6.73;;
8058;SDS011;4072;42.668;23.396;2023-02-11T14:25:59;9.77;;;6.57;;
8058;SDS011;4072;42.668;23.396;2023-02-11T14:28:29;7.63;;;5.63;;
8058;SDS011;4072;42.668;23.396;2023-02-11T14:31:01;11.37;;;6.60;;
8058;SDS011;4072;42.668;23.396;2023-02-11T14:33:40;6.57;;;4.77;;
8058;SDS011;4072;42.668;23.396;2023-02-11T14:36:22;8.33;;;6.30;;
8058;SDS011;4072;42.668;23.396;2023-02-11T14:38:59;11.83;;;7.30;;
8058;SDS011;4072;42.668;23.396;2023-02-11T14:41:30;8.80;;;5.93;;
8058;SDS011;4072;42.668;23.396;2023-02-11T14:43:59;8.90;;;6.23;;
8058;SDS011;4072;42.668;23.396;2023-02-11T14:46:28;11.20;;;6.43;;
8058;SDS011;4072;42.668;23.396;2023-02-11T14:48:58;4.67;;;4.17;;
8058;SDS011;4072;42.668;23.396;2023-02-11T14:51:28;10.77;;;6.67;;
8058;SDS011;4072;42.668;23.396;2023-02-11T14:53:58;11.07;;;7.53;;
8058;SDS011;4072;42.668;23.396;2023-02-11T14:56:28;10.00;;;6.67;;
8058;SDS011;4072;42.668;23.396;2023-02-11T14:58:57;11.33;;;7.03;;
8058;SDS011;4072;42.668;23.396;2023-02-11T15:01:26;12.37;;;7.07;;
8058;SDS011;4072;42.668;23.396;2023-02-11T15:03:55;12.13;;;8.27;;
8058;SDS011;4072;42.668;23.396;2023-02-11T15:06:25;8.23;;;6.67;;
8058;SDS011;4072;42.668;23.396;2023-02-11T15:08:57;11.83;;;7.63;;
8058;SDS011;4072;42.668;23.396;2023-02-11T15:11:27;11.13;;;7.30;;
8058;SDS011;4072;42.668;23.396;2023-02-11T15:13:58;12.17;;;7.53;;
8058;SDS011;4072;42.668;23.396;2023-02-11T15:16:26;10.60;;;6.37;;
8058;SDS011;4072;42.668;23.396;2023-02-11T15:18:55;7.30;;;4.63;;
8058;SDS011;4072;42.668;23.396;2023-02-11T15:21:25;14.00;;;8.03;;